sensor_id;sensor_type;location;lat;lon;timestamp;P1;durP1;ratioP1;P2;durP2;ratioP2
21128;SDS011;10722;51.910;8.352;2023-08-17T00:01:43;15.23;;;3.10;;
21128;SDS011;10722;51.910;8.352;2023-08-17T00:04:29;21.00;;;4.30;;
21128;SDS011;10722;51.910;8.352;2023-08-17T00:07:14;17.15;;;4.88;;
21128;SDS011;10722;51.910;8.352;2023-08-17T00:09:59;18.90;;;5.38;;
21128;SDS011;10722;51.910;8.352;2023-08-17T00:12:44;14.98;;;5.10;;
21128;SDS011;10722;51.910;8.352;2023-08-17T00:15:29;17.90;;;5.32;;
21128;SDS011;10722;51.910;8.352;2023-08-17T00:18:14;22.50;;;5.47;;
21128;SDS011;10722;51.910;8.352;2023-08-17T00:20:59;15.85;;;6.00;;
21128;SDS011;10722;51.910;8.352;2023-08-17T00:23:44;20.25;;;6.00;;
21128;SDS011;10722;51.910;8.352;2023-08-17T00:26:29;16.55;;;5.20;;
21128;SDS011;10722;51.910;8.352;2023-08-17T00:29:14;17.08;;;5.90;;
21128;SDS011;10722;51.910;8.352;2023-08-17T00:31:59;15.50;;;5.30;;
21128;SDS011;10722;51.910;8.352;2023-08-17T00:34:44;18.13;;;5.85;;
21128;SDS011;10722;51.910;8.352;2023-08-17T00:37:29;16.85;;;5.30;;
21128;SDS011;10722;51.910;8.352;2023-08-17T00:40:14;16.65;;;5.57;;
21128;SDS011;10722;51.910;8.352;2023-08-17T00:42:59;13.23;;;5.03;;
21128;SDS011;10722;51.910;8.352;2023-08-17T00:45:44;15.55;;;4.85;;
21128;SDS011;10722;51.910;8.352;2023-08-17T00:48:31;16.08;;;5.32;;
21128;SDS011;10722;51.910;8.352;2023-08-17T00:51:18;15.48;;;5.40;;
21128;SDS011;10722;51.910;8.352;2023-08-17T00:54:03;15.02;;;5.65;;
21128;SDS011;10722;51.910;8.352;2023-08-17T00:56:49;15.30;;;5.72;;
21128;SDS011;10722;51.910;8.352;2023-08-17T00:59:34;15.88;;;5.90;;
21128;SDS011;10722;51.910;8.352;2023-08-17T01:02:21;17.92;;;6.47;;
21128;SDS011;10722;51.910;8.352;2023-08-17T01:05:06;15.35;;;5.65;;
21128;SDS011;10722;51.910;8.352;2023-08-17T01:07:52;16.08;;;5.85;;
21128;SDS011;10722;51.910;8.352;2023-08-17T01:10:39;15.18;;;6.60;;
21128;SDS011;10722;51.910;8.352;2023-08-17T01:13:38;16.58;;;5.90;;
21128;SDS011;10722;51.910;8.352;2023-08-17T01:16:33;16.88;;;6.15;;
21128;SDS011;10722;51.910;8.352;2023-08-17T01:19:26;18.50;;;6.50;;
21128;SDS011;10722;51.910;8.352;2023-08-17T01:22:12;15.77;;;6.30;;
21128;SDS011;10722;51.910;8.352;2023-08-17T01:25:01;18.30;;;6.78;;
21128;SDS011;10722;51.910;8.352;2023-08-17T01:27:46;17.65;;;7.53;;
21128;SDS011;10722;51.910;8.352;2023-08-17T01:33:52;21.02;;;8.00;;
21128;SDS011;10722;51.910;8.352;2023-08-17T01:36:52;20.98;;;9.45;;
21128;SDS011;10722;51.910;8.352;2023-08-17T01:39:43;26.80;;;10.85;;
21128;SDS011;10722;51.910;8.352;2023-08-17T01:42:29;34.20;;;10.80;;
21128;SDS011;10722;51.910;8.352;2023-08-17T01:45:15;19.15;;;8.75;;
21128;SDS011;10722;51.910;8.352;2023-08-17T01:48:01;27.58;;;9.63;;
21128;SDS011;10722;51.910;8.352;2023-08-17T01:50:46;25.67;;;9.48;;
21128;SDS011;10722;51.910;8.352;2023-08-17T01:53:32;23.02;;;9.52;;
21128;SDS011;10722;51.910;8.352;2023-08-17T01:56:17;45.30;;;10.80;;
21128;SDS011;10722;51.910;8.352;2023-08-17T01:59:02;22.90;;;9.20;;
21128;SDS011;10722;51.910;8.352;2023-08-17T02:01:47;22.75;;;10.20;;
21128;SDS011;10722;51.910;8.352;2023-08-17T02:04:31;25.67;;;10.10;;
21128;SDS011;10722;51.910;8.352;2023-08-17T02:07:16;22.45;;;10.68;;
21128;SDS011;10722;51.910;8.352;2023-08-17T02:10:01;23.35;;;11.35;;
21128;SDS011;10722;51.910;8.352;2023-08-17T02:12:47;64.50;;;14.95;;
21128;SDS011;10722;51.910;8.352;2023-08-17T02:15:32;41.88;;;12.23;;
21128;SDS011;10722;51.910;8.352;2023-08-17T02:18:17;23.40;;;10.65;;
21128;SDS011;10722;51.910;8.352;2023-08-17T02:21:02;51.72;;;13.90;;
21128;SDS011;10722;51.910;8.352;2023-08-17T02:23:46;22.05;;;11.57;;
21128;SDS011;10722;51.910;8.352;2023-08-17T02:26:31;22.08;;;10.50;;
21128;SDS011;10722;51.910;8.352;2023-08-17T02:29:16;22.02;;;10.43;;
21128;SDS011;10722;51.910;8.352;2023-08-17T02:32:01;22.50;;;10.77;;
21128;SDS011;10722;51.910;8.352;2023-08-17T02:34:46;21.63;;;10.90;;
21128;SDS011;10722;51.910;8.352;2023-08-17T02:37:31;27.83;;;12.50;;
21128;SDS011;10722;51.910;8.352;2023-08-17T02:40:16;27.42;;;12.27;;
21128;SDS011;10722;51.910;8.352;2023-08-17T02:43:01;23.08;;;11.57;;
21128;SDS011;10722;51.910;8.352;2023-08-17T02:45:45;23.25;;;11.63;;
21128;SDS011;10722;51.910;8.352;2023-08-17T02:48:30;19.70;;;10.90;;
21128;SDS011;10722;51.910;8.352;2023-08-17T02:51:17;20.80;;;10.63;;
21128;SDS011;10722;51.910;8.352;2023-08-17T02:54:02;21.38;;;11.95;;
21128;SDS011;10722;51.910;8.352;2023-08-17T02:56:47;25.92;;;14.07;;
21128;SDS011;10722;51.910;8.352;2023-08-17T02:59:32;24.48;;;13.23;;
21128;SDS011;10722;51.910;8.352;2023-08-17T03:02:17;22.83;;;12.13;;
21128;SDS011;10722;51.910;8.352;2023-08-17T03:05:02;24.52;;;12.48;;
21128;SDS011;10722;51.910;8.352;2023-08-17T03:07:47;25.73;;;12.23;;
21128;SDS011;10722;51.910;8.352;2023-08-17T03:10:32;24.10;;;13.23;;
21128;SDS011;10722;51.910;8.352;2023-08-17T03:13:17;25.65;;;13.90;;
21128;SDS011;10722;51.910;8.352;2023-08-17T03:16:02;25.05;;;11.65;;
21128;SDS011;10722;51.910;8.352;2023-08-17T03:18:48;23.50;;;11.50;;
21128;SDS011;10722;51.910;8.352;2023-08-17T03:21:33;32.80;;;13.85;;
21128;SDS011;10722;51.910;8.352;2023-08-17T03:24:19;23.00;;;11.77;;
21128;SDS011;10722;51.910;8.352;2023-08-17T03:27:04;23.55;;;12.15;;
21128;SDS011;10722;51.910;8.352;2023-08-17T03:29:49;22.90;;;11.73;;
21128;SDS011;10722;51.910;8.352;2023-08-17T03:32:35;25.23;;;11.35;;
21128;SDS011;10722;51.910;8.352;2023-08-17T03:35:20;24.73;;;11.10;;
21128;SDS011;10722;51.910;8.352;2023-08-17T03:38:05;21.92;;;11.30;;
21128;SDS011;10722;51.910;8.352;2023-08-17T03:40:50;19.83;;;10.85;;
21128;SDS011;10722;51.910;8.352;2023-08-17T03:43:35;21.50;;;10.65;;
21128;SDS011;10722;51.910;8.352;2023-08-17T03:46:20;21.65;;;10.82;;
21128;SDS011;10722;51.910;8.352;2023-08-17T03:49:05;22.25;;;10.50;;
21128;SDS011;10722;51.910;8.352;2023-08-17T03:51:50;23.38;;;11.43;;
21128;SDS011;10722;51.910;8.352;2023-08-17T03:54:35;23.58;;;10.98;;
21128;SDS011;10722;51.910;8.352;2023-08-17T03:57:20;24.55;;;10.80;;
21128;SDS011;10722;51.910;8.352;2023-08-17T04:00:06;22.60;;;11.60;;
21128;SDS011;10722;51.910;8.352;2023-08-17T04:02:52;22.52;;;11.05;;
21128;SDS011;10722;51.910;8.352;2023-08-17T04:05:37;22.13;;;12.20;;
21128;SDS011;10722;51.910;8.352;2023-08-17T04:08:21;24.52;;;11.93;;
21128;SDS011;10722;51.910;8.352;2023-08-17T04:11:06;19.63;;;11.48;;
21128;SDS011;10722;51.910;8.352;2023-08-17T04:13:51;26.52;;;10.95;;
21128;SDS011;10722;51.910;8.352;2023-08-17T04:16:37;24.17;;;11.13;;
21128;SDS011;10722;51.910;8.352;2023-08-17T04:19:22;24.33;;;12.40;;
21128;SDS011;10722;51.910;8.352;2023-08-17T04:22:07;23.90;;;11.73;;
21128;SDS011;10722;51.910;8.352;2023-08-17T04:24:52;25.60;;;13.43;;
21128;SDS011;10722;51.910;8.352;2023-08-17T04:27:37;22.88;;;12.10;;
21128;SDS011;10722;51.910;8.352;2023-08-17T04:30:21;28.65;;;13.65;;
21128;SDS011;10722;51.910;8.352;2023-08-17T04:33:06;32.97;;;14.82;;
21128;SDS011;10722;51.910;8.352;2023-08-17T04:35:51;25.55;;;12.40;;
21128;SDS011;10722;51.910;8.352;2023-08-17T04:38:36;24.05;;;12.38;;
21128;SDS011;10722;51.910;8.352;2023-08-17T04:41:21;20.73;;;11.90;;
21128;SDS011;10722;51.910;8.352;2023-08-17T04:44:06;28.60;;;14.38;;
21128;SDS011;10722;51.910;8.352;2023-08-17T04:46:51;26.77;;;13.55;;
21128;SDS011;10722;51.910;8.352;2023-08-17T04:49:36;25.58;;;12.55;;
21128;SDS011;10722;51.910;8.352;2023-08-17T04:52:21;25.65;;;13.50;;
21128;SDS011;10722;51.910;8.352;2023-08-17T04:55:06;26.95;;;13.00;;
21128;SDS011;10722;51.910;8.352;2023-08-17T04:57:52;24.80;;;13.13;;
21128;SDS011;10722;51.910;8.352;2023-08-17T05:00:36;25.40;;;13.20;;
21128;SDS011;10722;51.910;8.352;2023-08-17T05:03:22;27.08;;;13.13;;
21128;SDS011;10722;51.910;8.352;2023-08-17T05:06:17;25.42;;;11.88;;
21128;SDS011;10722;51.910;8.352;2023-08-17T05:09:02;21.60;;;11.20;;
21128;SDS011;10722;51.910;8.352;2023-08-17T05:11:50;20.55;;;11.40;;
21128;SDS011;10722;51.910;8.352;2023-08-17T05:14:35;23.17;;;11.73;;
21128;SDS011;10722;51.910;8.352;2023-08-17T05:17:20;25.35;;;12.27;;
21128;SDS011;10722;51.910;8.352;2023-08-17T05:20:06;22.45;;;11.82;;
21128;SDS011;10722;51.910;8.352;2023-08-17T05:22:51;20.40;;;11.20;;
21128;SDS011;10722;51.910;8.352;2023-08-17T05:25:36;20.30;;;11.55;;
21128;SDS011;10722;51.910;8.352;2023-08-17T05:28:21;22.80;;;11.45;;
21128;SDS011;10722;51.910;8.352;2023-08-17T05:31:06;21.42;;;11.02;;
21128;SDS011;10722;51.910;8.352;2023-08-17T05:33:51;19.70;;;11.07;;
21128;SDS011;10722;51.910;8.352;2023-08-17T05:36:36;21.58;;;10.93;;
21128;SDS011;10722;51.910;8.352;2023-08-17T05:39:21;21.40;;;10.60;;
21128;SDS011;10722;51.910;8.352;2023-08-17T05:42:06;24.13;;;11.18;;
21128;SDS011;10722;51.910;8.352;2023-08-17T05:44:51;24.55;;;10.80;;
21128;SDS011;10722;51.910;8.352;2023-08-17T05:47:36;23.02;;;10.80;;
21128;SDS011;10722;51.910;8.352;2023-08-17T05:50:21;24.83;;;10.93;;
21128;SDS011;10722;51.910;8.352;2023-08-17T05:53:06;27.98;;;15.40;;
21128;SDS011;10722;51.910;8.352;2023-08-17T05:55:51;27.35;;;14.85;;
21128;SDS011;10722;51.910;8.352;2023-08-17T05:58:36;28.95;;;13.50;;
21128;SDS011;10722;51.910;8.352;2023-08-17T06:01:21;25.98;;;11.45;;
21128;SDS011;10722;51.910;8.352;2023-08-17T06:04:07;21.27;;;11.02;;
21128;SDS011;10722;51.910;8.352;2023-08-17T06:06:52;24.60;;;12.35;;
21128;SDS011;10722;51.910;8.352;2023-08-17T06:09:38;20.33;;;12.43;;
21128;SDS011;10722;51.910;8.352;2023-08-17T06:12:24;24.85;;;12.57;;
21128;SDS011;10722;51.910;8.352;2023-08-17T06:15:09;25.50;;;12.38;;
21128;SDS011;10722;51.910;8.352;2023-08-17T06:17:54;27.40;;;14.23;;
21128;SDS011;10722;51.910;8.352;2023-08-17T06:20:39;28.38;;;14.07;;
21128;SDS011;10722;51.910;8.352;2023-08-17T06:23:24;28.02;;;13.43;;
21128;SDS011;10722;51.910;8.352;2023-08-17T06:26:09;25.42;;;13.30;;
21128;SDS011;10722;51.910;8.352;2023-08-17T06:28:54;26.58;;;13.52;;
21128;SDS011;10722;51.910;8.352;2023-08-17T06:31:39;25.70;;;13.82;;
21128;SDS011;10722;51.910;8.352;2023-08-17T06:34:24;26.13;;;15.15;;
21128;SDS011;10722;51.910;8.352;2023-08-17T06:37:09;30.15;;;14.90;;
21128;SDS011;10722;51.910;8.352;2023-08-17T06:39:54;25.65;;;14.63;;
21128;SDS011;10722;51.910;8.352;2023-08-17T06:42:39;29.52;;;14.82;;
21128;SDS011;10722;51.910;8.352;2023-08-17T06:45:24;29.52;;;15.10;;
21128;SDS011;10722;51.910;8.352;2023-08-17T06:48:09;29.75;;;14.75;;
21128;SDS011;10722;51.910;8.352;2023-08-17T06:50:54;25.50;;;14.00;;
21128;SDS011;10722;51.910;8.352;2023-08-17T06:53:39;25.33;;;13.50;;
21128;SDS011;10722;51.910;8.352;2023-08-17T06:56:25;27.13;;;13.93;;
21128;SDS011;10722;51.910;8.352;2023-08-17T06:59:10;23.85;;;13.60;;
21128;SDS011;10722;51.910;8.352;2023-08-17T07:01:56;28.80;;;13.65;;
21128;SDS011;10722;51.910;8.352;2023-08-17T07:04:42;25.30;;;13.48;;
21128;SDS011;10722;51.910;8.352;2023-08-17T07:07:27;26.15;;;13.13;;
21128;SDS011;10722;51.910;8.352;2023-08-17T07:10:12;24.42;;;12.95;;
21128;SDS011;10722;51.910;8.352;2023-08-17T07:12:57;26.70;;;12.75;;
21128;SDS011;10722;51.910;8.352;2023-08-17T07:15:42;22.90;;;12.30;;
21128;SDS011;10722;51.910;8.352;2023-08-17T07:18:27;27.95;;;12.93;;
21128;SDS011;10722;51.910;8.352;2023-08-17T07:21:12;25.88;;;14.18;;
21128;SDS011;10722;51.910;8.352;2023-08-17T07:23:57;30.10;;;15.10;;
21128;SDS011;10722;51.910;8.352;2023-08-17T07:26:42;26.65;;;12.68;;
21128;SDS011;10722;51.910;8.352;2023-08-17T07:29:28;27.50;;;15.15;;
21128;SDS011;10722;51.910;8.352;2023-08-17T07:32:12;26.00;;;14.07;;
21128;SDS011;10722;51.910;8.352;2023-08-17T07:34:57;34.53;;;15.48;;
21128;SDS011;10722;51.910;8.352;2023-08-17T07:37:42;27.95;;;15.50;;
21128;SDS011;10722;51.910;8.352;2023-08-17T07:40:39;34.30;;;15.45;;
21128;SDS011;10722;51.910;8.352;2023-08-17T07:43:24;25.98;;;15.05;;
21128;SDS011;10722;51.910;8.352;2023-08-17T07:46:09;32.33;;;16.15;;
21128;SDS011;10722;51.910;8.352;2023-08-17T07:48:54;28.35;;;15.88;;
21128;SDS011;10722;51.910;8.352;2023-08-17T07:51:39;29.45;;;15.50;;
21128;SDS011;10722;51.910;8.352;2023-08-17T07:54:24;31.13;;;14.20;;
21128;SDS011;10722;51.910;8.352;2023-08-17T07:57:09;31.45;;;14.93;;
21128;SDS011;10722;51.910;8.352;2023-08-17T07:59:55;24.33;;;14.93;;
21128;SDS011;10722;51.910;8.352;2023-08-17T08:02:40;28.83;;;14.57;;
21128;SDS011;10722;51.910;8.352;2023-08-17T08:05:26;27.45;;;13.90;;
21128;SDS011;10722;51.910;8.352;2023-08-17T08:08:11;23.48;;;13.63;;
21128;SDS011;10722;51.910;8.352;2023-08-17T08:10:56;26.15;;;14.45;;
21128;SDS011;10722;51.910;8.352;2023-08-17T08:13:43;26.88;;;14.10;;
21128;SDS011;10722;51.910;8.352;2023-08-17T08:16:28;25.23;;;13.80;;
21128;SDS011;10722;51.910;8.352;2023-08-17T08:19:13;22.50;;;13.55;;
21128;SDS011;10722;51.910;8.352;2023-08-17T08:21:58;23.98;;;13.55;;
21128;SDS011;10722;51.910;8.352;2023-08-17T08:24:43;25.55;;;13.65;;
21128;SDS011;10722;51.910;8.352;2023-08-17T08:27:29;24.80;;;13.85;;
21128;SDS011;10722;51.910;8.352;2023-08-17T08:30:14;24.67;;;13.70;;
21128;SDS011;10722;51.910;8.352;2023-08-17T08:32:59;23.95;;;14.25;;
21128;SDS011;10722;51.910;8.352;2023-08-17T08:35:45;26.58;;;13.63;;
21128;SDS011;10722;51.910;8.352;2023-08-17T08:38:30;27.88;;;14.32;;
21128;SDS011;10722;51.910;8.352;2023-08-17T08:41:15;25.50;;;14.88;;
21128;SDS011;10722;51.910;8.352;2023-08-17T08:44:01;24.17;;;13.95;;
21128;SDS011;10722;51.910;8.352;2023-08-17T08:46:46;23.70;;;13.98;;
21128;SDS011;10722;51.910;8.352;2023-08-17T08:49:32;27.52;;;13.75;;
21128;SDS011;10722;51.910;8.352;2023-08-17T08:52:27;26.83;;;14.63;;
21128;SDS011;10722;51.910;8.352;2023-08-17T08:55:21;24.67;;;13.23;;
21128;SDS011;10722;51.910;8.352;2023-08-17T08:58:08;24.63;;;13.52;;
21128;SDS011;10722;51.910;8.352;2023-08-17T09:00:53;25.23;;;13.77;;
21128;SDS011;10722;51.910;8.352;2023-08-17T09:03:39;24.38;;;14.45;;
21128;SDS011;10722;51.910;8.352;2023-08-17T09:06:25;23.85;;;13.90;;
21128;SDS011;10722;51.910;8.352;2023-08-17T09:09:11;25.40;;;13.50;;
21128;SDS011;10722;51.910;8.352;2023-08-17T09:11:59;28.02;;;14.52;;
21128;SDS011;10722;51.910;8.352;2023-08-17T09:14:44;30.13;;;14.63;;
21128;SDS011;10722;51.910;8.352;2023-08-17T09:17:31;25.95;;;14.32;;
21128;SDS011;10722;51.910;8.352;2023-08-17T09:23:32;27.05;;;15.45;;
21128;SDS011;10722;51.910;8.352;2023-08-17T09:26:21;25.98;;;13.65;;
21128;SDS011;10722;51.910;8.352;2023-08-17T09:29:17;25.15;;;13.18;;
21128;SDS011;10722;51.910;8.352;2023-08-17T09:32:04;23.08;;;13.15;;
21128;SDS011;10722;51.910;8.352;2023-08-17T09:34:49;23.85;;;13.68;;
21128;SDS011;10722;51.910;8.352;2023-08-17T09:37:35;24.58;;;13.02;;
21128;SDS011;10722;51.910;8.352;2023-08-17T09:40:20;25.00;;;13.00;;
21128;SDS011;10722;51.910;8.352;2023-08-17T09:43:06;22.73;;;12.70;;
21128;SDS011;10722;51.910;8.352;2023-08-17T09:45:52;24.67;;;12.65;;
21128;SDS011;10722;51.910;8.352;2023-08-17T09:48:38;25.85;;;13.48;;
21128;SDS011;10722;51.910;8.352;2023-08-17T09:51:24;21.77;;;12.35;;
21128;SDS011;10722;51.910;8.352;2023-08-17T09:54:22;23.85;;;13.77;;
21128;SDS011;10722;51.910;8.352;2023-08-17T09:57:08;20.70;;;11.80;;
21128;SDS011;10722;51.910;8.352;2023-08-17T09:59:54;21.55;;;12.45;;
21128;SDS011;10722;51.910;8.352;2023-08-17T10:02:40;21.45;;;11.68;;
21128;SDS011;10722;51.910;8.352;2023-08-17T10:05:28;20.77;;;12.05;;
21128;SDS011;10722;51.910;8.352;2023-08-17T10:08:19;19.20;;;10.82;;
21128;SDS011;10722;51.910;8.352;2023-08-17T10:11:05;20.33;;;11.65;;
21128;SDS011;10722;51.910;8.352;2023-08-17T10:13:52;21.80;;;11.20;;
21128;SDS011;10722;51.910;8.352;2023-08-17T10:16:44;18.42;;;11.00;;
21128;SDS011;10722;51.910;8.352;2023-08-17T10:19:37;19.20;;;11.75;;
21128;SDS011;10722;51.910;8.352;2023-08-17T10:22:36;20.95;;;11.55;;
21128;SDS011;10722;51.910;8.352;2023-08-17T10:25:26;21.13;;;12.05;;
21128;SDS011;10722;51.910;8.352;2023-08-17T10:28:12;21.17;;;11.35;;
21128;SDS011;10722;51.910;8.352;2023-08-17T10:30:58;23.13;;;12.27;;
21128;SDS011;10722;51.910;8.352;2023-08-17T10:33:44;20.52;;;11.30;;
21128;SDS011;10722;51.910;8.352;2023-08-17T10:36:30;22.98;;;12.88;;
21128;SDS011;10722;51.910;8.352;2023-08-17T10:42:12;21.40;;;12.57;;
21128;SDS011;10722;51.910;8.352;2023-08-17T10:44:58;24.23;;;14.23;;
21128;SDS011;10722;51.910;8.352;2023-08-17T10:47:43;24.70;;;15.07;;
21128;SDS011;10722;51.910;8.352;2023-08-17T10:50:28;22.23;;;12.20;;
21128;SDS011;10722;51.910;8.352;2023-08-17T10:53:13;20.42;;;11.57;;
21128;SDS011;10722;51.910;8.352;2023-08-17T10:55:59;22.13;;;12.65;;
21128;SDS011;10722;51.910;8.352;2023-08-17T10:58:43;20.90;;;12.70;;
21128;SDS011;10722;51.910;8.352;2023-08-17T11:01:33;24.10;;;13.43;;
21128;SDS011;10722;51.910;8.352;2023-08-17T11:04:18;20.33;;;12.40;;
21128;SDS011;10722;51.910;8.352;2023-08-17T11:07:03;22.27;;;13.07;;
21128;SDS011;10722;51.910;8.352;2023-08-17T11:09:48;20.85;;;12.82;;
21128;SDS011;10722;51.910;8.352;2023-08-17T11:12:33;22.98;;;13.23;;
21128;SDS011;10722;51.910;8.352;2023-08-17T11:15:17;25.52;;;13.13;;
21128;SDS011;10722;51.910;8.352;2023-08-17T11:18:06;24.42;;;14.10;;
21128;SDS011;10722;51.910;8.352;2023-08-17T11:20:54;25.27;;;14.13;;
21128;SDS011;10722;51.910;8.352;2023-08-17T11:23:40;28.25;;;14.93;;
21128;SDS011;10722;51.910;8.352;2023-08-17T11:26:25;24.35;;;15.07;;
21128;SDS011;10722;51.910;8.352;2023-08-17T11:29:11;23.88;;;14.13;;
21128;SDS011;10722;51.910;8.352;2023-08-17T11:31:56;22.50;;;13.48;;
21128;SDS011;10722;51.910;8.352;2023-08-17T11:34:44;23.98;;;14.02;;
21128;SDS011;10722;51.910;8.352;2023-08-17T11:37:29;25.40;;;14.40;;
21128;SDS011;10722;51.910;8.352;2023-08-17T11:40:15;26.13;;;15.57;;
21128;SDS011;10722;51.910;8.352;2023-08-17T11:43:01;28.63;;;18.27;;
21128;SDS011;10722;51.910;8.352;2023-08-17T11:45:46;32.42;;;17.23;;
21128;SDS011;10722;51.910;8.352;2023-08-17T11:48:31;31.20;;;19.77;;
21128;SDS011;10722;51.910;8.352;2023-08-17T11:51:29;32.60;;;18.13;;
21128;SDS011;10722;51.910;8.352;2023-08-17T11:54:15;29.95;;;18.35;;
21128;SDS011;10722;51.910;8.352;2023-08-17T11:56:59;29.70;;;19.65;;
21128;SDS011;10722;51.910;8.352;2023-08-17T11:59:56;29.30;;;17.60;;
21128;SDS011;10722;51.910;8.352;2023-08-17T12:02:41;28.27;;;18.35;;
21128;SDS011;10722;51.910;8.352;2023-08-17T12:05:27;29.40;;;17.88;;
21128;SDS011;10722;51.910;8.352;2023-08-17T12:08:15;25.42;;;15.52;;
21128;SDS011;10722;51.910;8.352;2023-08-17T12:11:01;26.52;;;17.75;;
21128;SDS011;10722;51.910;8.352;2023-08-17T12:13:50;24.63;;;15.13;;
21128;SDS011;10722;51.910;8.352;2023-08-17T12:16:45;22.17;;;14.70;;
21128;SDS011;10722;51.910;8.352;2023-08-17T12:19:31;23.48;;;14.30;;
21128;SDS011;10722;51.910;8.352;2023-08-17T12:22:16;20.88;;;12.98;;
21128;SDS011;10722;51.910;8.352;2023-08-17T12:25:02;20.85;;;12.50;;
21128;SDS011;10722;51.910;8.352;2023-08-17T12:27:47;18.75;;;10.77;;
21128;SDS011;10722;51.910;8.352;2023-08-17T12:30:32;23.52;;;11.73;;
21128;SDS011;10722;51.910;8.352;2023-08-17T12:33:17;19.20;;;11.45;;
21128;SDS011;10722;51.910;8.352;2023-08-17T12:36:02;18.85;;;11.05;;
21128;SDS011;10722;51.910;8.352;2023-08-17T12:38:47;18.30;;;10.40;;
21128;SDS011;10722;51.910;8.352;2023-08-17T12:41:32;18.98;;;10.35;;
21128;SDS011;10722;51.910;8.352;2023-08-17T12:44:17;18.30;;;10.95;;
21128;SDS011;10722;51.910;8.352;2023-08-17T12:47:02;17.55;;;10.30;;
21128;SDS011;10722;51.910;8.352;2023-08-17T12:49:47;19.42;;;10.27;;
21128;SDS011;10722;51.910;8.352;2023-08-17T12:52:33;20.08;;;10.90;;
21128;SDS011;10722;51.910;8.352;2023-08-17T12:55:18;19.27;;;10.68;;
21128;SDS011;10722;51.910;8.352;2023-08-17T12:58:03;17.60;;;9.80;;
21128;SDS011;10722;51.910;8.352;2023-08-17T13:00:48;18.98;;;11.38;;
21128;SDS011;10722;51.910;8.352;2023-08-17T13:03:34;18.73;;;11.02;;
21128;SDS011;10722;51.910;8.352;2023-08-17T13:06:19;18.67;;;10.73;;
21128;SDS011;10722;51.910;8.352;2023-08-17T13:09:04;18.20;;;10.32;;
21128;SDS011;10722;51.910;8.352;2023-08-17T13:11:49;20.55;;;10.75;;
21128;SDS011;10722;51.910;8.352;2023-08-17T13:14:35;20.02;;;11.18;;
21128;SDS011;10722;51.910;8.352;2023-08-17T13:17:20;19.27;;;11.02;;
21128;SDS011;10722;51.910;8.352;2023-08-17T13:20:05;19.52;;;10.38;;
21128;SDS011;10722;51.910;8.352;2023-08-17T13:22:51;19.73;;;11.10;;
21128;SDS011;10722;51.910;8.352;2023-08-17T13:25:36;19.42;;;11.25;;
21128;SDS011;10722;51.910;8.352;2023-08-17T13:28:21;17.77;;;10.43;;
21128;SDS011;10722;51.910;8.352;2023-08-17T13:31:07;20.23;;;11.10;;
21128;SDS011;10722;51.910;8.352;2023-08-17T13:33:57;23.40;;;11.57;;
21128;SDS011;10722;51.910;8.352;2023-08-17T13:36:43;20.08;;;11.15;;
21128;SDS011;10722;51.910;8.352;2023-08-17T13:39:28;21.15;;;11.55;;
21128;SDS011;10722;51.910;8.352;2023-08-17T13:42:13;20.85;;;11.07;;
21128;SDS011;10722;51.910;8.352;2023-08-17T13:44:58;20.52;;;10.98;;
21128;SDS011;10722;51.910;8.352;2023-08-17T13:47:43;19.23;;;11.15;;
21128;SDS011;10722;51.910;8.352;2023-08-17T13:50:28;21.00;;;10.57;;
21128;SDS011;10722;51.910;8.352;2023-08-17T13:53:14;19.75;;;10.60;;
21128;SDS011;10722;51.910;8.352;2023-08-17T13:55:59;18.10;;;10.00;;
21128;SDS011;10722;51.910;8.352;2023-08-17T13:58:44;18.10;;;10.00;;
21128;SDS011;10722;51.910;8.352;2023-08-17T14:01:29;18.85;;;10.13;;
21128;SDS011;10722;51.910;8.352;2023-08-17T14:04:14;20.40;;;10.40;;
21128;SDS011;10722;51.910;8.352;2023-08-17T14:06:59;19.35;;;10.60;;
21128;SDS011;10722;51.910;8.352;2023-08-17T14:09:44;19.13;;;9.60;;
21128;SDS011;10722;51.910;8.352;2023-08-17T14:12:46;19.83;;;9.40;;
21128;SDS011;10722;51.910;8.352;2023-08-17T14:15:31;17.08;;;8.68;;
21128;SDS011;10722;51.910;8.352;2023-08-17T14:18:16;17.95;;;9.05;;
21128;SDS011;10722;51.910;8.352;2023-08-17T14:21:02;17.90;;;8.57;;
21128;SDS011;10722;51.910;8.352;2023-08-17T14:23:49;17.17;;;8.75;;
21128;SDS011;10722;51.910;8.352;2023-08-17T14:26:34;17.48;;;8.00;;
21128;SDS011;10722;51.910;8.352;2023-08-17T14:29:20;17.50;;;8.07;;
21128;SDS011;10722;51.910;8.352;2023-08-17T14:32:05;15.05;;;7.70;;
21128;SDS011;10722;51.910;8.352;2023-08-17T14:34:51;15.88;;;8.00;;
21128;SDS011;10722;51.910;8.352;2023-08-17T14:37:37;16.70;;;8.20;;
21128;SDS011;10722;51.910;8.352;2023-08-17T14:40:23;17.40;;;7.78;;
21128;SDS011;10722;51.910;8.352;2023-08-17T14:43:08;15.35;;;7.30;;
21128;SDS011;10722;51.910;8.352;2023-08-17T14:45:55;17.50;;;8.48;;
21128;SDS011;10722;51.910;8.352;2023-08-17T14:48:40;19.10;;;8.90;;
21128;SDS011;10722;51.910;8.352;2023-08-17T14:51:28;16.80;;;8.27;;
21128;SDS011;10722;51.910;8.352;2023-08-17T14:54:16;20.15;;;8.13;;
21128;SDS011;10722;51.910;8.352;2023-08-17T14:57:01;16.58;;;8.23;;
21128;SDS011;10722;51.910;8.352;2023-08-17T14:59:46;16.60;;;7.57;;
21128;SDS011;10722;51.910;8.352;2023-08-17T15:02:32;17.58;;;7.82;;
21128;SDS011;10722;51.910;8.352;2023-08-17T15:05:17;17.52;;;6.88;;
21128;SDS011;10722;51.910;8.352;2023-08-17T15:08:02;15.65;;;6.70;;
21128;SDS011;10722;51.910;8.352;2023-08-17T15:10:49;17.52;;;7.85;;
21128;SDS011;10722;51.910;8.352;2023-08-17T15:13:34;15.93;;;7.65;;
21128;SDS011;10722;51.910;8.352;2023-08-17T15:16:20;17.23;;;7.40;;
21128;SDS011;10722;51.910;8.352;2023-08-17T15:19:09;20.27;;;9.77;;
21128;SDS011;10722;51.910;8.352;2023-08-17T15:21:54;18.27;;;8.48;;
21128;SDS011;10722;51.910;8.352;2023-08-17T15:24:39;18.58;;;7.45;;
21128;SDS011;10722;51.910;8.352;2023-08-17T15:27:24;16.70;;;7.50;;
21128;SDS011;10722;51.910;8.352;2023-08-17T15:30:10;17.80;;;7.75;;
21128;SDS011;10722;51.910;8.352;2023-08-17T15:32:55;21.02;;;7.93;;
21128;SDS011;10722;51.910;8.352;2023-08-17T15:35:40;17.50;;;8.18;;
21128;SDS011;10722;51.910;8.352;2023-08-17T15:38:25;17.35;;;7.72;;
21128;SDS011;10722;51.910;8.352;2023-08-17T15:41:10;16.90;;;8.32;;
21128;SDS011;10722;51.910;8.352;2023-08-17T15:43:55;18.75;;;8.25;;
21128;SDS011;10722;51.910;8.352;2023-08-17T15:46:40;17.45;;;7.68;;
21128;SDS011;10722;51.910;8.352;2023-08-17T15:49:25;17.33;;;8.13;;
21128;SDS011;10722;51.910;8.352;2023-08-17T15:52:10;18.10;;;7.75;;
21128;SDS011;10722;51.910;8.352;2023-08-17T15:54:56;17.67;;;8.07;;
21128;SDS011;10722;51.910;8.352;2023-08-17T15:57:41;18.00;;;8.48;;
21128;SDS011;10722;51.910;8.352;2023-08-17T16:00:26;18.48;;;8.73;;
21128;SDS011;10722;51.910;8.352;2023-08-17T16:03:13;17.80;;;8.07;;
21128;SDS011;10722;51.910;8.352;2023-08-17T16:05:59;18.88;;;8.38;;
21128;SDS011;10722;51.910;8.352;2023-08-17T16:08:44;16.55;;;8.05;;
21128;SDS011;10722;51.910;8.352;2023-08-17T16:11:33;18.10;;;8.70;;
21128;SDS011;10722;51.910;8.352;2023-08-17T16:14:21;17.23;;;8.27;;
21128;SDS011;10722;51.910;8.352;2023-08-17T16:17:06;18.55;;;8.90;;
21128;SDS011;10722;51.910;8.352;2023-08-17T16:19:51;18.60;;;8.65;;
21128;SDS011;10722;51.910;8.352;2023-08-17T16:22:36;19.73;;;9.02;;
21128;SDS011;10722;51.910;8.352;2023-08-17T16:25:21;20.33;;;9.02;;